sensor_id;sensor_type;location;lat;lon;timestamp;P1;durP1;ratioP1;P2;durP2;ratioP2
76417;SDS011;65250;47.602;19.002;2024-01-25T00:01:48;5.65;;;0.73;;
76417;SDS011;65250;47.602;19.002;2024-01-25T00:04:15;4.90;;;0.82;;
76417;SDS011;65250;47.602;19.002;2024-01-25T00:06:42;7.18;;;0.88;;
76417;SDS011;65250;47.602;19.002;2024-01-25T00:09:09;8.20;;;0.80;;
76417;SDS011;65250;47.602;19.002;2024-01-25T00:11:36;5.88;;;0.80;;
76417;SDS011;65250;47.602;19.002;2024-01-25T00:14:03;5.10;;;0.75;;
76417;SDS011;65250;47.602;19.002;2024-01-25T00:16:31;4.50;;;1.02;;
76417;SDS011;65250;47.602;19.002;2024-01-25T00:18:58;6.22;;;0.52;;
76417;SDS011;65250;47.602;19.002;2024-01-25T00:21:25;6.20;;;0.93;;
76417;SDS011;65250;47.602;19.002;2024-01-25T00:23:52;7.20;;;0.90;;
76417;SDS011;65250;47.602;19.002;2024-01-25T00:26:18;5.50;;;1.25;;
76417;SDS011;65250;47.602;19.002;2024-01-25T00:28:45;8.55;;;1.38;;
76417;SDS011;65250;47.602;19.002;2024-01-25T00:31:12;5.47;;;1.00;;
76417;SDS011;65250;47.602;19.002;2024-01-25T00:33:39;4.40;;;0.73;;
76417;SDS011;65250;47.602;19.002;2024-01-25T00:36:06;3.55;;;0.70;;
76417;SDS011;65250;47.602;19.002;2024-01-25T00:38:34;3.90;;;0.50;;
76417;SDS011;65250;47.602;19.002;2024-01-25T00:41:01;2.92;;;0.77;;
76417;SDS011;65250;47.602;19.002;2024-01-25T00:43:28;6.63;;;0.93;;
76417;SDS011;65250;47.602;19.002;2024-01-25T00:45:55;6.33;;;0.53;;
76417;SDS011;65250;47.602;19.002;2024-01-25T00:48:23;3.15;;;0.57;;
76417;SDS011;65250;47.602;19.002;2024-01-25T00:50:50;5.63;;;0.75;;
76417;SDS011;65250;47.602;19.002;2024-01-25T00:53:17;5.32;;;0.85;;
76417;SDS011;65250;47.602;19.002;2024-01-25T00:55:44;5.90;;;0.80;;
76417;SDS011;65250;47.602;19.002;2024-01-25T00:58:11;5.93;;;0.80;;
76417;SDS011;65250;47.602;19.002;2024-01-25T01:00:39;4.25;;;0.93;;
76417;SDS011;65250;47.602;19.002;2024-01-25T01:03:06;3.90;;;0.57;;
76417;SDS011;65250;47.602;19.002;2024-01-25T01:05:34;6.20;;;0.90;;
76417;SDS011;65250;47.602;19.002;2024-01-25T01:08:01;12.20;;;1.40;;
76417;SDS011;65250;47.602;19.002;2024-01-25T01:10:29;7.73;;;0.60;;
76417;SDS011;65250;47.602;19.002;2024-01-25T01:12:55;7.25;;;0.95;;
76417;SDS011;65250;47.602;19.002;2024-01-25T01:15:22;6.80;;;1.00;;
76417;SDS011;65250;47.602;19.002;2024-01-25T01:17:49;3.75;;;0.60;;
76417;SDS011;65250;47.602;19.002;2024-01-25T01:20:16;3.95;;;0.65;;
76417;SDS011;65250;47.602;19.002;2024-01-25T01:22:43;4.30;;;0.57;;
76417;SDS011;65250;47.602;19.002;2024-01-25T01:25:10;4.22;;;0.57;;
76417;SDS011;65250;47.602;19.002;2024-01-25T01:27:37;10.57;;;0.90;;
76417;SDS011;65250;47.602;19.002;2024-01-25T01:30:04;7.43;;;0.55;;
76417;SDS011;65250;47.602;19.002;2024-01-25T01:32:33;7.03;;;0.80;;
76417;SDS011;65250;47.602;19.002;2024-01-25T01:35:00;3.77;;;0.40;;
76417;SDS011;65250;47.602;19.002;2024-01-25T01:37:28;6.47;;;0.85;;
76417;SDS011;65250;47.602;19.002;2024-01-25T01:39:55;6.97;;;0.57;;
76417;SDS011;65250;47.602;19.002;2024-01-25T01:42:22;5.00;;;0.57;;
76417;SDS011;65250;47.602;19.002;2024-01-25T01:44:50;9.60;;;0.95;;
76417;SDS011;65250;47.602;19.002;2024-01-25T01:47:19;6.77;;;0.97;;
76417;SDS011;65250;47.602;19.002;2024-01-25T01:49:46;4.13;;;0.70;;
76417;SDS011;65250;47.602;19.002;2024-01-25T01:52:14;4.75;;;0.63;;
76417;SDS011;65250;47.602;19.002;2024-01-25T01:54:42;10.95;;;1.10;;
76417;SDS011;65250;47.602;19.002;2024-01-25T01:57:09;4.00;;;0.50;;
76417;SDS011;65250;47.602;19.002;2024-01-25T01:59:35;5.70;;;0.53;;
76417;SDS011;65250;47.602;19.002;2024-01-25T02:02:02;6.47;;;0.95;;
76417;SDS011;65250;47.602;19.002;2024-01-25T02:04:30;4.03;;;0.70;;
76417;SDS011;65250;47.602;19.002;2024-01-25T02:06:57;10.60;;;0.50;;
76417;SDS011;65250;47.602;19.002;2024-01-25T02:09:24;8.88;;;0.98;;
76417;SDS011;65250;47.602;19.002;2024-01-25T02:12:03;5.40;;;0.60;;
76417;SDS011;65250;47.602;19.002;2024-01-25T02:14:30;16.23;;;1.42;;
76417;SDS011;65250;47.602;19.002;2024-01-25T02:16:57;3.80;;;0.68;;
76417;SDS011;65250;47.602;19.002;2024-01-25T02:19:24;10.52;;;1.08;;
76417;SDS011;65250;47.602;19.002;2024-01-25T02:21:51;6.15;;;0.57;;
76417;SDS011;65250;47.602;19.002;2024-01-25T02:24:20;3.60;;;0.93;;
76417;SDS011;65250;47.602;19.002;2024-01-25T02:26:47;7.03;;;0.63;;
76417;SDS011;65250;47.602;19.002;2024-01-25T02:29:14;5.50;;;0.50;;
76417;SDS011;65250;47.602;19.002;2024-01-25T02:31:41;8.00;;;0.90;;
76417;SDS011;65250;47.602;19.002;2024-01-25T02:34:08;8.45;;;0.50;;
76417;SDS011;65250;47.602;19.002;2024-01-25T02:36:35;4.97;;;0.63;;
76417;SDS011;65250;47.602;19.002;2024-01-25T02:39:02;3.78;;;0.40;;
76417;SDS011;65250;47.602;19.002;2024-01-25T02:41:29;6.65;;;0.85;;
76417;SDS011;65250;47.602;19.002;2024-01-25T02:43:56;4.53;;;0.55;;
76417;SDS011;65250;47.602;19.002;2024-01-25T02:46:23;3.25;;;0.60;;
76417;SDS011;65250;47.602;19.002;2024-01-25T02:48:50;5.63;;;0.90;;
76417;SDS011;65250;47.602;19.002;2024-01-25T02:51:17;3.83;;;0.50;;
76417;SDS011;65250;47.602;19.002;2024-01-25T02:53:44;3.08;;;0.60;;
76417;SDS011;65250;47.602;19.002;2024-01-25T02:56:11;8.85;;;1.13;;
76417;SDS011;65250;47.602;19.002;2024-01-25T02:58:38;11.38;;;0.80;;
76417;SDS011;65250;47.602;19.002;2024-01-25T03:01:05;12.80;;;1.03;;
76417;SDS011;65250;47.602;19.002;2024-01-25T03:03:32;11.07;;;1.25;;
76417;SDS011;65250;47.602;19.002;2024-01-25T03:05:59;8.88;;;0.65;;
76417;SDS011;65250;47.602;19.002;2024-01-25T03:08:26;6.15;;;0.50;;
76417;SDS011;65250;47.602;19.002;2024-01-25T03:10:53;8.15;;;0.85;;
76417;SDS011;65250;47.602;19.002;2024-01-25T03:13:20;2.90;;;0.50;;
76417;SDS011;65250;47.602;19.002;2024-01-25T03:15:47;8.77;;;0.95;;
76417;SDS011;65250;47.602;19.002;2024-01-25T03:18:14;6.88;;;1.00;;
76417;SDS011;65250;47.602;19.002;2024-01-25T03:20:41;3.42;;;0.55;;
76417;SDS011;65250;47.602;19.002;2024-01-25T03:23:08;8.15;;;0.60;;
76417;SDS011;65250;47.602;19.002;2024-01-25T03:25:35;7.60;;;0.50;;
76417;SDS011;65250;47.602;19.002;2024-01-25T03:28:02;6.63;;;0.90;;
76417;SDS011;65250;47.602;19.002;2024-01-25T03:30:29;12.10;;;1.08;;
76417;SDS011;65250;47.602;19.002;2024-01-25T03:32:56;3.45;;;0.32;;
76417;SDS011;65250;47.602;19.002;2024-01-25T03:35:23;8.07;;;1.00;;
76417;SDS011;65250;47.602;19.002;2024-01-25T03:37:50;7.00;;;0.63;;
76417;SDS011;65250;47.602;19.002;2024-01-25T03:40:17;4.50;;;0.65;;
76417;SDS011;65250;47.602;19.002;2024-01-25T03:42:44;2.08;;;0.32;;
76417;SDS011;65250;47.602;19.002;2024-01-25T03:45:31;5.28;;;0.47;;
76417;SDS011;65250;47.602;19.002;2024-01-25T03:47:59;4.18;;;0.80;;
76417;SDS011;65250;47.602;19.002;2024-01-25T03:50:26;3.80;;;0.50;;
76417;SDS011;65250;47.602;19.002;2024-01-25T03:52:54;5.25;;;0.82;;
76417;SDS011;65250;47.602;19.002;2024-01-25T03:55:21;4.85;;;0.30;;
76417;SDS011;65250;47.602;19.002;2024-01-25T03:57:49;4.70;;;0.80;;
76417;SDS011;65250;47.602;19.002;2024-01-25T04:00:16;7.45;;;1.13;;
76417;SDS011;65250;47.602;19.002;2024-01-25T04:02:44;5.60;;;0.50;;
76417;SDS011;65250;47.602;19.002;2024-01-25T04:05:11;7.15;;;0.73;;
76417;SDS011;65250;47.602;19.002;2024-01-25T04:07:37;10.18;;;0.98;;
76417;SDS011;65250;47.602;19.002;2024-01-25T04:10:04;14.25;;;1.25;;
76417;SDS011;65250;47.602;19.002;2024-01-25T04:12:32;2.90;;;0.65;;
76417;SDS011;65250;47.602;19.002;2024-01-25T04:14:59;10.60;;;1.03;;
76417;SDS011;65250;47.602;19.002;2024-01-25T04:17:26;6.85;;;0.65;;
76417;SDS011;65250;47.602;19.002;2024-01-25T04:19:54;9.45;;;0.82;;
76417;SDS011;65250;47.602;19.002;2024-01-25T04:22:21;6.20;;;0.82;;
76417;SDS011;65250;47.602;19.002;2024-01-25T04:24:48;9.85;;;0.50;;
76417;SDS011;65250;47.602;19.002;2024-01-25T04:27:16;1.93;;;0.50;;
76417;SDS011;65250;47.602;19.002;2024-01-25T04:29:43;6.65;;;1.45;;
76417;SDS011;65250;47.602;19.002;2024-01-25T04:32:11;5.13;;;0.90;;
76417;SDS011;65250;47.602;19.002;2024-01-25T04:34:39;11.50;;;0.85;;
76417;SDS011;65250;47.602;19.002;2024-01-25T04:37:06;5.78;;;0.82;;
76417;SDS011;65250;47.602;19.002;2024-01-25T04:39:33;3.70;;;0.90;;
76417;SDS011;65250;47.602;19.002;2024-01-25T04:42:00;6.65;;;0.63;;
76417;SDS011;65250;47.602;19.002;2024-01-25T04:44:27;7.60;;;1.08;;
76417;SDS011;65250;47.602;19.002;2024-01-25T04:46:54;10.30;;;1.83;;
76417;SDS011;65250;47.602;19.002;2024-01-25T04:49:21;5.70;;;0.52;;
76417;SDS011;65250;47.602;19.002;2024-01-25T04:51:48;9.23;;;1.47;;
76417;SDS011;65250;47.602;19.002;2024-01-25T04:54:16;5.70;;;0.90;;
76417;SDS011;65250;47.602;19.002;2024-01-25T04:56:43;5.95;;;0.85;;
76417;SDS011;65250;47.602;19.002;2024-01-25T04:59:10;5.25;;;0.80;;
76417;SDS011;65250;47.602;19.002;2024-01-25T05:01:37;7.70;;;1.15;;
76417;SDS011;65250;47.602;19.002;2024-01-25T05:04:04;8.03;;;1.33;;
76417;SDS011;65250;47.602;19.002;2024-01-25T05:06:32;5.30;;;1.05;;
76417;SDS011;65250;47.602;19.002;2024-01-25T05:08:59;4.15;;;0.70;;
76417;SDS011;65250;47.602;19.002;2024-01-25T05:11:26;9.27;;;1.95;;
76417;SDS011;65250;47.602;19.002;2024-01-25T05:13:53;8.68;;;0.98;;
76417;SDS011;65250;47.602;19.002;2024-01-25T05:16:20;5.00;;;0.50;;
76417;SDS011;65250;47.602;19.002;2024-01-25T05:18:47;5.05;;;0.73;;
76417;SDS011;65250;47.602;19.002;2024-01-25T05:21:15;6.22;;;1.20;;
76417;SDS011;65250;47.602;19.002;2024-01-25T05:23:42;8.77;;;1.10;;
76417;SDS011;65250;47.602;19.002;2024-01-25T05:26:08;5.93;;;0.68;;
76417;SDS011;65250;47.602;19.002;2024-01-25T05:28:35;5.10;;;0.60;;
76417;SDS011;65250;47.602;19.002;2024-01-25T05:31:02;6.43;;;0.90;;
76417;SDS011;65250;47.602;19.002;2024-01-25T05:33:31;6.93;;;1.00;;
76417;SDS011;65250;47.602;19.002;2024-01-25T05:35:59;6.38;;;0.80;;
76417;SDS011;65250;47.602;19.002;2024-01-25T05:38:26;5.15;;;0.75;;
76417;SDS011;65250;47.602;19.002;2024-01-25T05:40:53;7.90;;;0.60;;
76417;SDS011;65250;47.602;19.002;2024-01-25T05:43:20;9.40;;;1.10;;
76417;SDS011;65250;47.602;19.002;2024-01-25T05:45:47;5.38;;;1.10;;
76417;SDS011;65250;47.602;19.002;2024-01-25T05:48:14;5.85;;;0.55;;
76417;SDS011;65250;47.602;19.002;2024-01-25T05:50:41;4.53;;;1.17;;
76417;SDS011;65250;47.602;19.002;2024-01-25T05:53:08;9.50;;;0.90;;
76417;SDS011;65250;47.602;19.002;2024-01-25T05:55:35;6.53;;;0.95;;
76417;SDS011;65250;47.602;19.002;2024-01-25T05:58:02;4.47;;;0.57;;
76417;SDS011;65250;47.602;19.002;2024-01-25T06:00:29;4.25;;;0.85;;
76417;SDS011;65250;47.602;19.002;2024-01-25T06:02:56;5.70;;;0.93;;
76417;SDS011;65250;47.602;19.002;2024-01-25T06:05:23;6.33;;;0.90;;
76417;SDS011;65250;47.602;19.002;2024-01-25T06:07:50;5.78;;;0.90;;
76417;SDS011;65250;47.602;19.002;2024-01-25T06:10:18;5.55;;;0.80;;
76417;SDS011;65250;47.602;19.002;2024-01-25T06:12:45;4.97;;;0.75;;
76417;SDS011;65250;47.602;19.002;2024-01-25T06:15:12;7.57;;;1.00;;
76417;SDS011;65250;47.602;19.002;2024-01-25T06:17:39;10.37;;;1.23;;
76417;SDS011;65250;47.602;19.002;2024-01-25T06:20:07;4.45;;;0.93;;
76417;SDS011;65250;47.602;19.002;2024-01-25T06:22:34;6.43;;;1.23;;
76417;SDS011;65250;47.602;19.002;2024-01-25T06:25:01;7.25;;;1.15;;
76417;SDS011;65250;47.602;19.002;2024-01-25T06:27:33;5.93;;;1.10;;
76417;SDS011;65250;47.602;19.002;2024-01-25T06:29:59;9.10;;;0.73;;
76417;SDS011;65250;47.602;19.002;2024-01-25T06:32:26;4.82;;;1.08;;
76417;SDS011;65250;47.602;19.002;2024-01-25T06:34:53;7.93;;;0.98;;
76417;SDS011;65250;47.602;19.002;2024-01-25T06:37:21;4.32;;;0.90;;
76417;SDS011;65250;47.602;19.002;2024-01-25T06:39:48;10.05;;;1.77;;
76417;SDS011;65250;47.602;19.002;2024-01-25T06:42:15;9.90;;;0.93;;
76417;SDS011;65250;47.602;19.002;2024-01-25T06:44:42;8.02;;;1.10;;
76417;SDS011;65250;47.602;19.002;2024-01-25T06:47:09;5.65;;;1.75;;
76417;SDS011;65250;47.602;19.002;2024-01-25T06:49:36;9.65;;;1.00;;
76417;SDS011;65250;47.602;19.002;2024-01-25T06:52:03;10.15;;;0.98;;
76417;SDS011;65250;47.602;19.002;2024-01-25T06:54:31;8.70;;;1.40;;
76417;SDS011;65250;47.602;19.002;2024-01-25T06:56:58;7.05;;;1.45;;
76417;SDS011;65250;47.602;19.002;2024-01-25T06:59:25;7.00;;;1.48;;
76417;SDS011;65250;47.602;19.002;2024-01-25T07:01:52;13.45;;;1.30;;
76417;SDS011;65250;47.602;19.002;2024-01-25T07:04:20;3.78;;;1.15;;
76417;SDS011;65250;47.602;19.002;2024-01-25T07:06:47;15.67;;;2.07;;
76417;SDS011;65250;47.602;19.002;2024-01-25T07:09:16;6.70;;;1.95;;
76417;SDS011;65250;47.602;19.002;2024-01-25T07:11:43;10.35;;;1.88;;
76417;SDS011;65250;47.602;19.002;2024-01-25T07:14:11;8.15;;;1.13;;
76417;SDS011;65250;47.602;19.002;2024-01-25T07:16:38;7.00;;;1.27;;
76417;SDS011;65250;47.602;19.002;2024-01-25T07:19:05;7.43;;;1.20;;
76417;SDS011;65250;47.602;19.002;2024-01-25T07:21:32;9.63;;;0.85;;
76417;SDS011;65250;47.602;19.002;2024-01-25T07:23:59;3.22;;;0.90;;
76417;SDS011;65250;47.602;19.002;2024-01-25T07:26:27;6.35;;;0.77;;
76417;SDS011;65250;47.602;19.002;2024-01-25T07:28:54;4.90;;;1.20;;
76417;SDS011;65250;47.602;19.002;2024-01-25T07:31:25;7.43;;;1.27;;
76417;SDS011;65250;47.602;19.002;2024-01-25T07:33:53;6.00;;;1.15;;
76417;SDS011;65250;47.602;19.002;2024-01-25T07:36:20;6.60;;;1.42;;
76417;SDS011;65250;47.602;19.002;2024-01-25T07:38:50;11.27;;;1.55;;
76417;SDS011;65250;47.602;19.002;2024-01-25T07:41:17;8.57;;;1.40;;
76417;SDS011;65250;47.602;19.002;2024-01-25T07:43:44;5.33;;;1.30;;
76417;SDS011;65250;47.602;19.002;2024-01-25T07:46:11;4.22;;;1.10;;
76417;SDS011;65250;47.602;19.002;2024-01-25T07:48:41;9.82;;;1.58;;
76417;SDS011;65250;47.602;19.002;2024-01-25T07:51:12;6.47;;;1.10;;
76417;SDS011;65250;47.602;19.002;2024-01-25T07:53:42;4.38;;;0.75;;
76417;SDS011;65250;47.602;19.002;2024-01-25T07:56:09;6.10;;;1.17;;
76417;SDS011;65250;47.602;19.002;2024-01-25T07:58:37;9.20;;;1.70;;
76417;SDS011;65250;47.602;19.002;2024-01-25T08:01:05;10.68;;;1.20;;
76417;SDS011;65250;47.602;19.002;2024-01-25T08:03:36;6.70;;;0.82;;
76417;SDS011;65250;47.602;19.002;2024-01-25T08:06:03;4.97;;;1.15;;
76417;SDS011;65250;47.602;19.002;2024-01-25T08:08:31;4.77;;;0.90;;
76417;SDS011;65250;47.602;19.002;2024-01-25T08:10:58;4.75;;;1.20;;
76417;SDS011;65250;47.602;19.002;2024-01-25T08:13:25;7.28;;;1.23;;
76417;SDS011;65250;47.602;19.002;2024-01-25T08:15:58;9.70;;;1.67;;
76417;SDS011;65250;47.602;19.002;2024-01-25T08:18:25;7.63;;;1.13;;
76417;SDS011;65250;47.602;19.002;2024-01-25T08:20:55;10.83;;;2.00;;
76417;SDS011;65250;47.602;19.002;2024-01-25T08:23:23;9.43;;;1.10;;
76417;SDS011;65250;47.602;19.002;2024-01-25T08:25:51;6.65;;;1.50;;
76417;SDS011;65250;47.602;19.002;2024-01-25T08:28:18;11.00;;;1.40;;
76417;SDS011;65250;47.602;19.002;2024-01-25T08:30:46;8.00;;;1.48;;
76417;SDS011;65250;47.602;19.002;2024-01-25T08:33:13;6.30;;;1.77;;
76417;SDS011;65250;47.602;19.002;2024-01-25T08:35:40;11.20;;;1.45;;
76417;SDS011;65250;47.602;19.002;2024-01-25T08:38:07;6.35;;;1.23;;
76417;SDS011;65250;47.602;19.002;2024-01-25T08:40:34;10.40;;;1.40;;
76417;SDS011;65250;47.602;19.002;2024-01-25T08:43:01;8.25;;;1.58;;
76417;SDS011;65250;47.602;19.002;2024-01-25T08:45:28;6.97;;;0.83;;
76417;SDS011;65250;47.602;19.002;2024-01-25T08:47:55;12.07;;;1.50;;
76417;SDS011;65250;47.602;19.002;2024-01-25T08:50:23;6.65;;;1.20;;
76417;SDS011;65250;47.602;19.002;2024-01-25T08:52:53;5.43;;;1.25;;
76417;SDS011;65250;47.602;19.002;2024-01-25T08:55:20;6.90;;;1.73;;
76417;SDS011;65250;47.602;19.002;2024-01-25T08:57:47;8.23;;;1.27;;
76417;SDS011;65250;47.602;19.002;2024-01-25T09:00:15;7.95;;;1.17;;
76417;SDS011;65250;47.602;19.002;2024-01-25T09:02:42;10.20;;;1.67;;
76417;SDS011;65250;47.602;19.002;2024-01-25T09:05:09;14.95;;;2.40;;
76417;SDS011;65250;47.602;19.002;2024-01-25T09:07:37;10.40;;;2.10;;
76417;SDS011;65250;47.602;19.002;2024-01-25T09:10:04;4.83;;;1.50;;
76417;SDS011;65250;47.602;19.002;2024-01-25T09:12:31;7.47;;;1.30;;
76417;SDS011;65250;47.602;19.002;2024-01-25T09:14:58;7.57;;;1.90;;
76417;SDS011;65250;47.602;19.002;2024-01-25T09:17:25;5.63;;;1.48;;
76417;SDS011;65250;47.602;19.002;2024-01-25T09:19:52;13.10;;;1.80;;
76417;SDS011;65250;47.602;19.002;2024-01-25T09:22:20;19.63;;;2.87;;
76417;SDS011;65250;47.602;19.002;2024-01-25T09:24:47;14.98;;;2.20;;
76417;SDS011;65250;47.602;19.002;2024-01-25T09:27:14;7.38;;;1.75;;
76417;SDS011;65250;47.602;19.002;2024-01-25T09:29:41;12.55;;;1.35;;
76417;SDS011;65250;47.602;19.002;2024-01-25T09:32:09;12.48;;;1.35;;
76417;SDS011;65250;47.602;19.002;2024-01-25T09:34:36;15.27;;;2.40;;
76417;SDS011;65250;47.602;19.002;2024-01-25T09:37:06;6.03;;;1.42;;
76417;SDS011;65250;47.602;19.002;2024-01-25T09:39:34;7.15;;;1.50;;
76417;SDS011;65250;47.602;19.002;2024-01-25T09:42:03;8.50;;;1.35;;
76417;SDS011;65250;47.602;19.002;2024-01-25T09:44:30;8.57;;;1.90;;
76417;SDS011;65250;47.602;19.002;2024-01-25T09:46:58;8.47;;;2.13;;
76417;SDS011;65250;47.602;19.002;2024-01-25T09:49:25;8.43;;;1.98;;
76417;SDS011;65250;47.602;19.002;2024-01-25T09:51:52;6.13;;;1.70;;
76417;SDS011;65250;47.602;19.002;2024-01-25T09:54:19;10.02;;;2.10;;
76417;SDS011;65250;47.602;19.002;2024-01-25T09:56:46;8.43;;;2.28;;
76417;SDS011;65250;47.602;19.002;2024-01-25T09:59:17;7.50;;;1.97;;
76417;SDS011;65250;47.602;19.002;2024-01-25T10:01:45;9.90;;;1.95;;
76417;SDS011;65250;47.602;19.002;2024-01-25T10:04:13;7.47;;;2.20;;
76417;SDS011;65250;47.602;19.002;2024-01-25T10:06:40;11.88;;;2.10;;
76417;SDS011;65250;47.602;19.002;2024-01-25T10:09:07;8.50;;;1.45;;
76417;SDS011;65250;47.602;19.002;2024-01-25T10:11:36;7.33;;;1.57;;
76417;SDS011;65250;47.602;19.002;2024-01-25T10:14:10;9.88;;;1.90;;
76417;SDS011;65250;47.602;19.002;2024-01-25T10:16:37;5.80;;;1.90;;
76417;SDS011;65250;47.602;19.002;2024-01-25T10:19:07;7.50;;;1.88;;
76417;SDS011;65250;47.602;19.002;2024-01-25T10:21:36;5.18;;;1.83;;
76417;SDS011;65250;47.602;19.002;2024-01-25T10:24:07;6.57;;;1.60;;
76417;SDS011;65250;47.602;19.002;2024-01-25T10:26:35;6.75;;;1.40;;
76417;SDS011;65250;47.602;19.002;2024-01-25T10:29:02;7.60;;;2.22;;
76417;SDS011;65250;47.602;19.002;2024-01-25T10:31:32;14.13;;;2.30;;
76417;SDS011;65250;47.602;19.002;2024-01-25T10:34:05;10.10;;;1.90;;
76417;SDS011;65250;47.602;19.002;2024-01-25T10:36:34;9.20;;;1.93;;
76417;SDS011;65250;47.602;19.002;2024-01-25T10:39:02;12.30;;;2.13;;
76417;SDS011;65250;47.602;19.002;2024-01-25T10:41:31;13.23;;;2.83;;
76417;SDS011;65250;47.602;19.002;2024-01-25T10:43:59;15.73;;;2.40;;
76417;SDS011;65250;47.602;19.002;2024-01-25T10:46:26;16.98;;;2.45;;
76417;SDS011;65250;47.602;19.002;2024-01-25T10:48:53;9.17;;;1.87;;
76417;SDS011;65250;47.602;19.002;2024-01-25T10:51:20;8.07;;;1.73;;
76417;SDS011;65250;47.602;19.002;2024-01-25T10:53:47;10.85;;;2.30;;
76417;SDS011;65250;47.602;19.002;2024-01-25T10:56:15;17.13;;;2.17;;
76417;SDS011;65250;47.602;19.002;2024-01-25T10:58:42;21.40;;;3.15;;
76417;SDS011;65250;47.602;19.002;2024-01-25T11:01:10;11.07;;;1.83;;
76417;SDS011;65250;47.602;19.002;2024-01-25T11:03:42;14.20;;;1.75;;
76417;SDS011;65250;47.602;19.002;2024-01-25T11:06:13;20.27;;;3.15;;
76417;SDS011;65250;47.602;19.002;2024-01-25T11:08:41;15.32;;;2.53;;
76417;SDS011;65250;47.602;19.002;2024-01-25T11:11:10;6.60;;;1.75;;
76417;SDS011;65250;47.602;19.002;2024-01-25T11:13:39;9.83;;;3.17;;
76417;SDS011;65250;47.602;19.002;2024-01-25T11:16:14;22.63;;;2.88;;
76417;SDS011;65250;47.602;19.002;2024-01-25T11:18:51;9.10;;;2.00;;
76417;SDS011;65250;47.602;19.002;2024-01-25T11:24:16;10.63;;;2.28;;
76417;SDS011;65250;47.602;19.002;2024-01-25T11:26:44;10.90;;;2.00;;
76417;SDS011;65250;47.602;19.002;2024-01-25T11:29:15;10.20;;;2.20;;
76417;SDS011;65250;47.602;19.002;2024-01-25T11:31:46;16.48;;;2.28;;
76417;SDS011;65250;47.602;19.002;2024-01-25T11:34:14;8.10;;;2.35;;
76417;SDS011;65250;47.602;19.002;2024-01-25T11:36:48;14.43;;;2.92;;
76417;SDS011;65250;47.602;19.002;2024-01-25T11:39:16;12.17;;;2.77;;
76417;SDS011;65250;47.602;19.002;2024-01-25T11:41:43;12.57;;;2.20;;
76417;SDS011;65250;47.602;19.002;2024-01-25T11:44:11;7.78;;;2.20;;
76417;SDS011;65250;47.602;19.002;2024-01-25T11:46:40;7.93;;;2.33;;
76417;SDS011;65250;47.602;19.002;2024-01-25T11:49:07;9.73;;;2.08;;
76417;SDS011;65250;47.602;19.002;2024-01-25T11:51:34;14.60;;;2.63;;
76417;SDS011;65250;47.602;19.002;2024-01-25T11:54:01;14.95;;;2.60;;
76417;SDS011;65250;47.602;19.002;2024-01-25T11:56:32;9.18;;;3.67;;
76417;SDS011;65250;47.602;19.002;2024-01-25T11:59:00;9.73;;;2.10;;
76417;SDS011;65250;47.602;19.002;2024-01-25T12:01:27;6.47;;;2.17;;
76417;SDS011;65250;47.602;19.002;2024-01-25T12:03:55;8.17;;;2.30;;
76417;SDS011;65250;47.602;19.002;2024-01-25T12:06:23;10.88;;;2.28;;
76417;SDS011;65250;47.602;19.002;2024-01-25T12:08:50;7.78;;;2.40;;
76417;SDS011;65250;47.602;19.002;2024-01-25T12:11:18;7.88;;;2.22;;
76417;SDS011;65250;47.602;19.002;2024-01-25T12:13:48;16.50;;;2.53;;
76417;SDS011;65250;47.602;19.002;2024-01-25T12:16:15;10.57;;;2.40;;
76417;SDS011;65250;47.602;19.002;2024-01-25T12:18:43;5.80;;;2.10;;
76417;SDS011;65250;47.602;19.002;2024-01-25T12:21:11;8.07;;;2.50;;
76417;SDS011;65250;47.602;19.002;2024-01-25T12:23:40;8.38;;;1.92;;
76417;SDS011;65250;47.602;19.002;2024-01-25T12:26:08;12.18;;;2.00;;
76417;SDS011;65250;47.602;19.002;2024-01-25T12:28:37;11.13;;;2.10;;
76417;SDS011;65250;47.602;19.002;2024-01-25T12:31:05;5.32;;;1.70;;
76417;SDS011;65250;47.602;19.002;2024-01-25T12:33:33;5.50;;;1.70;;
76417;SDS011;65250;47.602;19.002;2024-01-25T12:36:02;7.22;;;2.22;;
76417;SDS011;65250;47.602;19.002;2024-01-25T12:38:32;7.63;;;2.58;;
76417;SDS011;65250;47.602;19.002;2024-01-25T12:41:03;7.83;;;1.80;;
76417;SDS011;65250;47.602;19.002;2024-01-25T12:43:31;8.70;;;2.53;;
76417;SDS011;65250;47.602;19.002;2024-01-25T12:45:59;9.48;;;2.50;;
76417;SDS011;65250;47.602;19.002;2024-01-25T12:48:43;10.60;;;2.28;;
76417;SDS011;65250;47.602;19.002;2024-01-25T12:51:14;8.27;;;2.80;;
76417;SDS011;65250;47.602;19.002;2024-01-25T12:53:41;10.13;;;2.37;;
76417;SDS011;65250;47.602;19.002;2024-01-25T12:56:08;10.10;;;2.50;;
76417;SDS011;65250;47.602;19.002;2024-01-25T12:58:35;9.48;;;2.85;;
76417;SDS011;65250;47.602;19.002;2024-01-25T13:01:03;7.63;;;2.38;;
76417;SDS011;65250;47.602;19.002;2024-01-25T13:03:30;11.93;;;2.00;;
76417;SDS011;65250;47.602;19.002;2024-01-25T13:05:57;10.83;;;2.20;;
76417;SDS011;65250;47.602;19.002;2024-01-25T13:08:24;8.32;;;2.30;;
76417;SDS011;65250;47.602;19.002;2024-01-25T13:10:51;5.75;;;2.45;;
76417;SDS011;65250;47.602;19.002;2024-01-25T13:13:20;4.80;;;1.85;;
76417;SDS011;65250;47.602;19.002;2024-01-25T13:15:47;5.82;;;2.08;;
76417;SDS011;65250;47.602;19.002;2024-01-25T13:18:14;4.70;;;2.00;;
76417;SDS011;65250;47.602;19.002;2024-01-25T13:20:41;8.70;;;2.05;;
76417;SDS011;65250;47.602;19.002;2024-01-25T13:23:08;4.88;;;1.92;;
76417;SDS011;65250;47.602;19.002;2024-01-25T13:25:35;7.03;;;1.60;;
76417;SDS011;65250;47.602;19.002;2024-01-25T13:28:01;6.53;;;2.08;;
76417;SDS011;65250;47.602;19.002;2024-01-25T13:30:29;4.63;;;1.83;;
76417;SDS011;65250;47.602;19.002;2024-01-25T13:32:56;8.82;;;1.73;;
76417;SDS011;65250;47.602;19.002;2024-01-25T13:35:24;12.48;;;2.10;;
76417;SDS011;65250;47.602;19.002;2024-01-25T13:37:51;9.70;;;1.73;;
76417;SDS011;65250;47.602;19.002;2024-01-25T13:40:18;9.77;;;2.22;;
76417;SDS011;65250;47.602;19.002;2024-01-25T13:42:52;5.90;;;2.03;;
76417;SDS011;65250;47.602;19.002;2024-01-25T13:45:19;9.98;;;2.10;;
76417;SDS011;65250;47.602;19.002;2024-01-25T13:47:46;6.15;;;1.60;;
76417;SDS011;65250;47.602;19.002;2024-01-25T13:50:13;7.65;;;2.08;;
76417;SDS011;65250;47.602;19.002;2024-01-25T13:52:40;6.72;;;2.08;;
76417;SDS011;65250;47.602;19.002;2024-01-25T13:55:10;7.23;;;1.63;;
76417;SDS011;65250;47.602;19.002;2024-01-25T13:57:36;11.23;;;2.47;;
76417;SDS011;65250;47.602;19.002;2024-01-25T14:00:03;9.30;;;2.05;;
76417;SDS011;65250;47.602;19.002;2024-01-25T14:02:31;8.25;;;2.40;;
76417;SDS011;65250;47.602;19.002;2024-01-25T14:04:59;10.00;;;2.63;;
76417;SDS011;65250;47.602;19.002;2024-01-25T14:07:26;6.47;;;1.47;;
76417;SDS011;65250;47.602;19.002;2024-01-25T14:09:53;6.65;;;1.58;;
76417;SDS011;65250;47.602;19.002;2024-01-25T14:12:20;10.82;;;1.98;;
76417;SDS011;65250;47.602;19.002;2024-01-25T14:14:48;6.50;;;1.70;;
76417;SDS011;65250;47.602;19.002;2024-01-25T14:17:15;4.05;;;1.38;;
76417;SDS011;65250;47.602;19.002;2024-01-25T14:19:42;4.87;;;1.40;;
76417;SDS011;65250;47.602;19.002;2024-01-25T14:22:09;3.78;;;1.25;;
76417;SDS011;65250;47.602;19.002;2024-01-25T14:24:54;4.10;;;1.25;;
76417;SDS011;65250;47.602;19.002;2024-01-25T14:27:22;6.70;;;1.75;;
76417;SDS011;65250;47.602;19.002;2024-01-25T14:29:49;6.00;;;1.10;;
76417;SDS011;65250;47.602;19.002;2024-01-25T14:32:17;8.77;;;1.33;;
76417;SDS011;65250;47.602;19.002;2024-01-25T14:34:46;4.50;;;1.25;;
76417;SDS011;65250;47.602;19.002;2024-01-25T14:37:13;8.35;;;1.50;;